21:09
Airports
History
Links
Donate
Help keep this website running!
PayPal
Bitcoin
This page is community maintained. The information is intended for PC simulator navigation or reference.
Always use approved charts for navigation.
PE4
Cambridge Reids Field
Cambridge Reids Field (PE4)
Cambridge, Ontario, Canada
(U)
Lat/Lng:43° 26' 33.5" N / 80° 13' 55.5" W
43.442638 / -80.232083
Elevation:1050'ft / 320mMSL
ID / ICAO:PE4
Runways:1
Longest:(17-35) 1,142.6m / 3,749ft Asphalt
Distance To
Airport ID:
Airport Radio Frequencies
CTAF: 123.2
Nearby VORs <50NM
Nearby NDBs
Nearby WeatherUpdated 08-20-17 21:00 GMT
Nearby weather at CYKF, WATERLOO located 7.5 nautical miles from PE4
Altimeter: 30.08
Visibility: 9.0 statute miles
Wind: 9 knots (220°)
Temp: 26°c 79°f
Humidity: 50.7%

METAR: CYKF 202100Z AUTO 22009KT 9SM SCT055 26/15 A3008 RMK SLP184 DENSITY ALT 2300FT

(Powered by phpweather)
Runway 17 / 35
Dimensions:1142.6 x 13.7m 3749' x 45'ft
Surface:Asphalt
Edge Lights:Medium intensity
Runway 17 [A]Runway 35 [B]
Heading:160°TH 340°TH
Lat:
Lng:
43° 26' 50.99"N
80° 14' 4"W
43° 26' 16"N
80° 13' 47"W
User Notes and Comments
Google Map
Nearby Airports
(C) WATERLOO 7.5 NM
CYKF (WX) W 279°
(U) Guelph 8.6 NM
CNC4 NNE 12°
(U) BURLINGTON AIRPARK 19.2 NM
CZBA E 90°
(U) BRANTFORD 22.4 NM
CYFD SSW 194°
(C) John C Munro Hamilton Intl 23.8 NM
CYHM (WX) SE 141°
(U) Brampton 28.3 NM
CNC3 NE 39°
(C) Lester B. Pearson Intl 34.2 NM
CYYZ (WX) ENE 61°
VFR Chart
Flight Planning at SkyVector.com